Halfway's Hourly Summary for Sunday, May 13, 2018
Hour Temp
(f)
RH
(%)
Solar Rad.
(MJ/m2)
Rainfall
(in)
Wind
(mph)
5/13/2018 12:00 AM 77 28 0 0 10.33
5/13/2018 1:00 AM 77 44 0 0 13.71
5/13/2018 2:00 AM 77 44 0 0 14.12
5/13/2018 3:00 AM 75 49 0 0 11.78
5/13/2018 4:00 AM 73 53 0 0 12.03
5/13/2018 5:00 AM 70 57 0 0 9.9
5/13/2018 6:00 AM 68 62 0 0 8.78
5/13/2018 7:00 AM 67 66 0.01 0 9.48
5/13/2018 8:00 AM 66 68 0.12 0 7.44
5/13/2018 9:00 AM 69 57 1 0 11.6
5/13/2018 10:00 AM 73 55 0.92 0 15.22
5/13/2018 11:00 AM 76 38 1.81 0 13.15
5/13/2018 12:00 PM 82 25 2.87 0 10.16
5/13/2018 1:00 PM 85 14 2.92 0 8.3
5/13/2018 2:00 PM 86 13 2.53 0 5.99
5/13/2018 3:00 PM 88 12 3.27 0 7.01
5/13/2018 4:00 PM 90 12 3.31 0 8.61
5/13/2018 5:00 PM 91 12 2.85 0 8.89
5/13/2018 6:00 PM 91 12 1.65 0 12.77
5/13/2018 7:00 PM 90 13 1.01 0 12.44
5/13/2018 8:00 PM 90 10 0.57 0 16.1
5/13/2018 9:00 PM 83 11 0.12 0 7.98
5/13/2018 10:00 PM 75 17 0 0 4.65
5/13/2018 11:00 PM 74 19 0 0 5.11
Data Summary 78 32 24.96 0.00 10.23